Time;durP1;ratioP1;P1;durP2;ratioP2;P2;SDS_P1;SDS_P2;PMS_P1;PMS_P2;Temp;Humidity;BMP_temperature;BMP_pressure;BME280_temperature;BME280_humidity;BME280_pressure;Samples;Min_cycle;Max_cycle;Signal;HPM_P1;HPM_P2
2023/08/30 00:00:36;;;;;;;9.50;5.20;;;15.00;96.80;;;;;;6135984;23;20196;-91
2023/08/30 00:03:01;;;;;;;8.03;5.87;;;13.70;96.60;;;;;;6136200;23;20189;-91
2023/08/30 00:05:27;;;;;;;5.93;5.27;;;13.80;98.30;;;;;;6135244;23;20177;-91
2023/08/30 00:07:54;;;;;;;7.40;5.03;;;14.10;99.00;;;;;;6135297;23;20166;-92
2023/08/30 00:10:20;;;;;;;7.77;5.30;;;13.70;98.70;;;;;;6135883;23;20244;-90
2023/08/30 00:12:45;;;;;;;8.27;5.77;;;13.70;98.80;;;;;;6135326;23;20694;-93
2023/08/30 00:15:11;;;;;;;8.40;6.77;;;15.10;99.60;;;;;;6135358;23;20177;-88
2023/08/30 00:17:37;;;;;;;7.07;5.40;;;13.60;99.50;;;;;;6137316;23;20164;-92
2023/08/30 00:20:03;;;;;;;6.13;5.53;;;13.60;99.90;;;;;;6157257;23;20254;-92
2023/08/30 00:22:28;;;;;;;7.87;5.73;;;13.70;99.90;;;;;;6137910;23;20286;-92
2023/08/30 00:24:54;;;;;;;9.63;5.73;;;14.40;99.90;;;;;;6135589;23;20181;-89
2023/08/30 00:27:22;;;;;;;6.57;5.73;;;13.80;99.90;;;;;;6136303;23;20204;-90
2023/08/30 00:29:48;;;;;;;6.17;5.57;;;13.60;99.90;;;;;;6137358;23;20466;-92
2023/08/30 00:32:14;;;;;;;10.67;6.03;;;13.50;99.90;;;;;;6136075;23;20272;-91
2023/08/30 00:34:39;;;;;;;6.10;5.33;;;13.50;99.90;;;;;;6134363;23;20200;-91
2023/08/30 00:37:05;;;;;;;7.57;5.37;;;13.50;99.90;;;;;;6135670;23;20520;-85
2023/08/30 00:39:30;;;;;;;5.70;5.10;;;13.40;99.90;;;;;;6109659;23;20162;-86
2023/08/30 00:41:56;;;;;;;6.10;5.23;;;14.80;99.90;;;;;;6134396;23;20166;-86
2023/08/30 00:44:22;;;;;;;6.83;5.27;;;14.70;99.90;;;;;;6132297;23;20188;-87
2023/08/30 00:46:48;;;;;;;6.97;5.27;;;13.50;99.90;;;;;;6158986;23;20169;-83
2023/08/30 00:49:14;;;;;;;7.50;5.07;;;13.80;99.90;;;;;;6132262;23;20506;-91
2023/08/30 00:51:40;;;;;;;7.00;5.30;;;13.20;99.90;;;;;;6133171;23;20185;-91
2023/08/30 00:54:06;;;;;;;6.77;4.73;;;13.90;99.90;;;;;;6150106;23;20252;-90
2023/08/30 00:56:33;;;;;;;12.20;5.53;;;13.10;99.90;;;;;;6135439;23;20165;-91
2023/08/30 00:59:00;;;;;;;6.87;5.50;;;13.10;99.30;;;;;;6135018;23;20165;-93
2023/08/30 01:01:26;;;;;;;6.87;5.17;;;13.10;99.30;;;;;;6135519;23;20241;-91
2023/08/30 01:03:52;;;;;;;5.43;4.80;;;13.10;99.70;;;;;;6135586;23;20158;-91
2023/08/30 01:06:17;;;;;;;5.20;4.70;;;13.70;99.70;;;;;;6135156;23;20185;-92
2023/08/30 01:08:43;;;;;;;5.73;5.13;;;12.90;98.90;;;;;;6135169;23;20240;-91
2023/08/30 01:11:28;;;;;;;7.80;5.57;;;14.10;99.30;;;;;;6135564;23;20569;-91
2023/08/30 01:14:01;;;;;;;5.70;5.03;;;12.90;97.70;;;;;;6135730;23;20164;-93
2023/08/30 01:16:27;;;;;;;5.83;4.90;;;12.90;97.70;;;;;;6135060;23;20182;-91
2023/08/30 01:18:57;;;;;;;6.17;5.27;;;12.70;97.60;;;;;;6135749;23;20162;-92
2023/08/30 01:21:55;;;;;;;7.97;4.97;;;13.20;97.60;;;;;;6134822;23;20158;-92
2023/08/30 01:24:29;;;;;;;6.93;5.27;;;12.70;97.40;;;;;;6135063;23;20183;-91
2023/08/30 01:27:09;;;;;;;5.73;5.23;;;12.70;97.80;;;;;;6134871;23;20174;-90
2023/08/30 01:29:38;;;;;;;6.37;5.37;;;12.70;97.80;;;;;;6135450;23;20165;-91
2023/08/30 01:32:05;;;;;;;9.53;5.50;;;12.70;98.40;;;;;;6134773;23;20182;-90
2023/08/30 01:34:31;;;;;;;6.93;5.20;;;12.60;98.40;;;;;;6134674;23;20640;-90
2023/08/30 01:36:58;;;;;;;7.30;5.43;;;12.60;99.00;;;;;;6134675;23;20186;-93
2023/08/30 01:39:25;;;;;;;8.10;5.70;;;12.50;98.90;;;;;;6136032;23;20225;-90
2023/08/30 01:41:52;;;;;;;7.30;5.70;;;12.70;99.30;;;;;;6134467;23;20161;-91
2023/08/30 01:44:18;;;;;;;6.17;5.57;;;12.40;99.00;;;;;;6135039;23;20284;-92
2023/08/30 01:46:45;;;;;;;6.90;5.27;;;12.40;99.70;;;;;;6134760;23;20161;-91
2023/08/30 01:49:12;;;;;;;13.20;5.83;;;12.50;99.90;;;;;;6134789;23;20166;-93
2023/08/30 01:51:39;;;;;;;7.20;5.37;;;13.50;99.90;;;;;;6134324;23;20166;-92
2023/08/30 01:54:07;;;;;;;9.00;5.77;;;12.30;99.90;;;;;;6134654;23;20164;-90
2023/08/30 01:56:33;;;;;;;6.70;5.60;;;12.40;99.90;;;;;;6134317;23;20522;-93
2023/08/30 01:58:58;;;;;;;12.23;6.10;;;13.00;99.90;;;;;;6135772;23;20592;-93
2023/08/30 02:01:24;;;;;;;7.03;6.33;;;13.50;99.90;;;;;;6138773;23;20166;-92
2023/08/30 02:03:50;;;;;;;7.27;5.90;;;12.20;99.90;;;;;;6135432;23;20163;-92
2023/08/30 02:06:26;;;;;;;7.67;6.67;;;12.20;99.90;;;;;;6135171;23;20178;-91
2023/08/30 02:09:01;;;;;;;7.37;6.37;;;12.10;99.90;;;;;;6136783;23;20157;-89
2023/08/30 02:11:29;;;;;;;6.90;6.20;;;12.20;99.90;;;;;;6134466;23;20162;-92
2023/08/30 02:13:59;;;;;;;7.87;5.80;;;12.10;99.90;;;;;;6135725;23;20158;-93
2023/08/30 02:16:27;;;;;;;7.47;6.07;;;12.20;99.90;;;;;;6135193;23;20228;-91
2023/08/30 02:18:53;;;;;;;8.53;6.03;;;12.10;99.90;;;;;;6135738;23;20291;-91
2023/08/30 02:21:19;;;;;;;8.50;6.60;;;12.10;99.90;;;;;;6134461;23;20236;-92
2023/08/30 02:23:50;;;;;;;11.50;6.03;;;13.10;99.90;;;;;;6134644;23;20185;-91
2023/08/30 02:26:21;;;;;;;10.70;6.40;;;12.10;99.90;;;;;;6131502;23;20216;-92
2023/08/30 02:28:47;;;;;;;7.83;6.23;;;12.40;99.90;;;;;;6105575;23;20189;-91
2023/08/30 02:31:12;;;;;;;7.70;6.83;;;12.70;99.90;;;;;;6105675;23;20486;-93
2023/08/30 02:33:38;;;;;;;7.73;6.33;;;11.90;99.90;;;;;;6107765;23;20187;-92
2023/08/30 02:36:04;;;;;;;8.57;6.60;;;11.90;99.90;;;;;;6106800;23;20202;-91
2023/08/30 02:38:30;;;;;;;11.20;6.80;;;12.00;99.90;;;;;;6105929;23;20189;-93
2023/08/30 02:40:55;;;;;;;8.93;6.03;;;10.20;99.90;;;;;;6106184;23;20162;-91
2023/08/30 02:43:23;;;;;;;8.20;6.33;;;12.00;99.90;;;;;;6107760;23;20166;-93
2023/08/30 02:45:49;;;;;;;7.50;6.30;;;11.90;99.90;;;;;;6106881;23;20182;-88
2023/08/30 02:48:15;;;;;;;7.87;6.67;;;13.40;99.90;;;;;;6106802;23;20188;-91
2023/08/30 02:50:41;;;;;;;9.53;6.73;;;12.80;99.90;;;;;;6107431;23;20169;-90
2023/08/30 02:53:09;;;;;;;7.57;6.53;;;13.60;99.90;;;;;;6107108;23;20186;-92
2023/08/30 02:55:35;;;;;;;7.43;6.63;;;12.90;99.90;;;;;;6106929;23;20174;-90
2023/08/30 02:58:01;;;;;;;8.83;6.97;;;11.80;99.90;;;;;;6106560;23;20493;-90
2023/08/30 03:00:27;;;;;;;12.33;6.93;;;11.70;99.90;;;;;;6105327;23;20201;-91
2023/08/30 03:02:53;;;;;;;9.77;7.13;;;11.80;99.90;;;;;;6131170;23;20164;-91
2023/08/30 03:05:18;;;;;;;8.97;7.03;;;11.70;99.90;;;;;;6104608;23;20658;-91
2023/08/30 03:07:44;;;;;;;8.80;7.47;;;12.20;99.90;;;;;;6127160;23;20202;-91
2023/08/30 03:10:11;;;;;;;11.90;8.00;;;11.70;99.90;;;;;;6112926;23;20159;-91
2023/08/30 03:12:37;;;;;;;7.67;6.87;;;11.60;99.90;;;;;;6107469;23;20178;-92
2023/08/30 03:15:04;;;;;;;9.80;7.70;;;12.90;99.90;;;;;;6107282;23;20185;-93
2023/08/30 03:17:31;;;;;;;8.80;7.17;;;11.70;99.90;;;;;;6106812;23;20162;-88
2023/08/30 03:19:56;;;;;;;13.30;7.93;;;11.60;99.90;;;;;;6106982;23;20168;-91
2023/08/30 03:22:22;;;;;;;9.43;7.37;;;11.60;99.90;;;;;;6106251;23;20190;-92
2023/08/30 03:24:49;;;;;;;9.97;7.83;;;11.60;99.90;;;;;;6106816;23;20264;-92
2023/08/30 03:27:15;;;;;;;9.50;7.53;;;11.80;99.90;;;;;;6116562;23;20174;-90
2023/08/30 03:29:41;;;;;;;9.87;7.70;;;12.50;99.90;;;;;;6130631;23;20167;-92
2023/08/30 03:32:07;;;;;;;10.10;8.27;;;11.60;99.90;;;;;;6130722;23;20650;-94
2023/08/30 03:34:32;;;;;;;10.60;7.90;;;11.60;99.90;;;;;;6131657;23;20174;-92
2023/08/30 03:36:58;;;;;;;10.00;7.93;;;11.60;99.90;;;;;;6131034;23;20181;-92
2023/08/30 03:39:24;;;;;;;11.17;8.50;;;12.50;99.90;;;;;;6131210;23;20178;-92
2023/08/30 03:41:50;;;;;;;10.30;8.00;;;11.60;99.90;;;;;;6131268;23;20166;-92
2023/08/30 03:44:16;;;;;;;10.27;8.30;;;12.30;99.90;;;;;;6131079;23;20217;-88
2023/08/30 03:46:41;;;;;;;11.47;8.50;;;11.60;99.90;;;;;;6131506;23;20166;-92
2023/08/30 03:49:07;;;;;;;14.50;8.87;;;12.10;99.90;;;;;;6131019;23;20295;-92
2023/08/30 03:51:32;;;;;;;10.13;8.13;;;11.70;99.90;;;;;;6130939;23;20162;-91
2023/08/30 03:53:58;;;;;;;10.37;8.50;;;11.70;99.90;;;;;;6131641;23;20158;-92
2023/08/30 03:56:24;;;;;;;10.43;7.97;;;11.80;99.90;;;;;;6131093;23;20265;-91
2023/08/30 03:58:49;;;;;;;10.47;7.77;;;12.90;99.90;;;;;;6131062;23;20158;-92
2023/08/30 04:01:15;;;;;;;13.37;8.97;;;11.80;99.90;;;;;;6130809;23;20159;-93
2023/08/30 04:03:41;;;;;;;13.30;8.87;;;13.30;99.90;;;;;;6131044;23;20220;-91
2023/08/30 04:06:06;;;;;;;13.17;9.37;;;12.50;99.90;;;;;;6131314;23;20199;-91
2023/08/30 04:08:32;;;;;;;12.10;9.77;;;12.00;99.90;;;;;;6130718;23;20163;-92
2023/08/30 04:10:58;;;;;;;10.03;9.03;;;12.00;99.90;;;;;;6131647;23;20188;-93
2023/08/30 04:13:24;;;;;;;14.17;9.70;;;12.20;99.90;;;;;;6130909;23;20188;-91
2023/08/30 04:15:49;;;;;;;11.73;9.83;;;12.00;99.90;;;;;;6131175;23;20262;-93
2023/08/30 04:18:15;;;;;;;12.13;9.80;;;12.10;99.90;;;;;;6130794;23;20165;-92
2023/08/30 04:20:46;;;;;;;11.20;9.97;;;12.10;99.90;;;;;;6131134;23;20162;-93
2023/08/30 04:23:11;;;;;;;11.80;9.77;;;13.40;99.90;;;;;;6131479;23;20166;-91
2023/08/30 04:25:37;;;;;;;11.53;9.33;;;12.40;99.90;;;;;;6130695;23;20245;-93
2023/08/30 04:28:04;;;;;;;14.50;10.20;;;12.10;99.90;;;;;;6131357;23;20202;-91
2023/08/30 04:30:29;;;;;;;12.77;9.43;;;12.20;99.90;;;;;;6130782;23;20173;-92
2023/08/30 04:32:55;;;;;;;11.07;9.40;;;12.50;99.90;;;;;;6105935;23;20191;-92
2023/08/30 04:35:21;;;;;;;15.27;9.40;;;12.30;99.90;;;;;;6130568;23;20178;-93
2023/08/30 04:37:48;;;;;;;13.20;9.77;;;12.30;99.90;;;;;;6130118;23;20615;-92
2023/08/30 04:40:14;;;;;;;10.43;9.37;;;13.00;99.90;;;;;;6130206;23;20154;-91
2023/08/30 04:42:39;;;;;;;14.97;9.10;;;13.80;99.90;;;;;;6130326;23;20238;-92
2023/08/30 04:45:06;;;;;;;12.20;9.40;;;14.00;99.90;;;;;;6130312;23;20189;-92
2023/08/30 04:47:32;;;;;;;11.77;8.83;;;12.40;99.90;;;;;;6129709;23;20189;-91
2023/08/30 04:49:58;;;;;;;12.27;8.80;;;12.50;99.90;;;;;;6130757;23;20169;-90
2023/08/30 04:52:24;;;;;;;11.67;9.40;;;12.50;99.90;;;;;;6130943;23;20186;-92
2023/08/30 04:54:50;;;;;;;12.03;9.17;;;12.50;99.90;;;;;;6130017;23;20486;-90
2023/08/30 04:57:17;;;;;;;13.17;9.40;;;12.50;99.90;;;;;;6129456;23;20158;-92
2023/08/30 04:59:44;;;;;;;11.93;9.47;;;12.50;99.90;;;;;;6129887;23;20158;-93
2023/08/30 05:02:09;;;;;;;12.03;9.77;;;13.40;99.90;;;;;;6130285;23;20619;-90
2023/08/30 05:04:35;;;;;;;9.57;8.40;;;12.60;99.90;;;;;;6129812;23;20185;-91
2023/08/30 05:07:01;;;;;;;11.53;9.23;;;14.40;99.90;;;;;;6130183;23;20162;-91
2023/08/30 05:09:27;;;;;;;11.03;8.57;;;12.70;99.90;;;;;;6129231;23;20162;-93
2023/08/30 05:11:53;;;;;;;12.50;8.90;;;13.00;99.90;;;;;;6130028;23;20234;-91
2023/08/30 05:14:19;;;;;;;12.60;9.03;;;12.70;99.90;;;;;;6133226;23;20532;-91
2023/08/30 05:16:45;;;;;;;11.73;9.10;;;12.80;99.90;;;;;;6133788;23;20158;-90
2023/08/30 05:19:11;;;;;;;12.40;9.83;;;12.80;99.90;;;;;;6131756;23;20212;-91
2023/08/30 05:21:36;;;;;;;13.37;9.60;;;12.90;99.90;;;;;;6130949;23;20257;-91
2023/08/30 05:24:05;;;;;;;14.57;8.97;;;13.00;99.90;;;;;;6132224;23;20162;-93
2023/08/30 05:26:32;;;;;;;14.07;9.07;;;12.80;99.90;;;;;;6108445;23;20170;-91
2023/08/30 05:28:58;;;;;;;13.47;10.00;;;13.80;99.90;;;;;;6133889;23;20221;-89
2023/08/30 05:31:23;;;;;;;10.50;8.57;;;13.10;99.90;;;;;;6136572;23;20162;-90
2023/08/30 05:33:49;;;;;;;13.63;8.97;;;13.10;99.90;;;;;;6132727;23;20194;-91
2023/08/30 05:36:14;;;;;;;9.97;8.73;;;13.70;99.90;;;;;;6135571;23;20202;-90
2023/08/30 05:38:40;;;;;;;10.63;8.67;;;13.30;99.90;;;;;;6133908;23;20218;-91
2023/08/30 05:41:06;;;;;;;13.67;9.40;;;13.10;99.90;;;;;;6140684;23;20159;-91
2023/08/30 05:43:32;;;;;;;11.43;9.27;;;13.40;99.90;;;;;;6140677;23;20161;-91
2023/08/30 05:46:02;;;;;;;12.60;9.03;;;12.90;99.90;;;;;;6132728;23;20189;-91
2023/08/30 05:48:28;;;;;;;13.23;9.20;;;13.00;99.90;;;;;;6132449;23;20166;-93
2023/08/30 05:50:54;;;;;;;11.67;8.70;;;13.10;99.90;;;;;;6132007;23;20650;-90
2023/08/30 05:53:20;;;;;;;13.23;8.30;;;13.10;99.90;;;;;;6131848;23;20186;-91
2023/08/30 05:55:45;;;;;;;16.17;9.40;;;13.10;99.90;;;;;;6131320;23;20184;-91
2023/08/30 05:58:11;;;;;;;12.57;9.50;;;13.30;99.90;;;;;;6107479;23;20166;-91
2023/08/30 06:00:37;;;;;;;12.77;8.73;;;13.20;99.90;;;;;;6132796;23;20169;-92
2023/08/30 06:03:03;;;;;;;13.80;8.80;;;13.90;99.90;;;;;;6132029;23;20185;-91
2023/08/30 06:05:29;;;;;;;12.33;8.87;;;13.50;99.90;;;;;;6132695;23;20213;-93
2023/08/30 06:07:55;;;;;;;10.83;8.20;;;14.10;99.90;;;;;;6133017;23;20169;-90
2023/08/30 06:10:21;;;;;;;12.77;8.47;;;14.50;99.90;;;;;;6131480;23;20166;-92
2023/08/30 06:12:48;;;;;;;12.07;7.90;;;13.70;99.90;;;;;;6132932;23;20190;-91
2023/08/30 06:15:13;;;;;;;10.00;8.47;;;13.70;99.90;;;;;;6133640;23;20201;-92
2023/08/30 06:17:39;;;;;;;11.10;7.87;;;13.80;99.90;;;;;;6133817;23;20190;-92
2023/08/30 06:20:05;;;;;;;14.10;8.70;;;14.50;99.90;;;;;;6134050;23;20154;-92
2023/08/30 06:22:30;;;;;;;10.37;7.90;;;13.90;99.90;;;;;;6133155;23;20158;-91
2023/08/30 06:24:56;;;;;;;13.00;8.90;;;14.10;99.90;;;;;;6131613;23;20706;-93
2023/08/30 06:27:24;;;;;;;10.23;7.63;;;14.10;99.90;;;;;;6134269;23;20174;-92
2023/08/30 06:29:50;;;;;;;8.97;7.17;;;14.20;99.90;;;;;;6108854;23;20233;-92
2023/08/30 06:32:16;;;;;;;10.80;7.93;;;14.20;99.90;;;;;;6134541;23;20170;-92
2023/08/30 06:34:42;;;;;;;12.97;7.47;;;14.40;99.90;;;;;;6108132;23;20178;-92
2023/08/30 06:37:08;;;;;;;11.13;7.43;;;14.60;99.90;;;;;;6107505;23;20700;-92
2023/08/30 06:39:35;;;;;;;10.23;7.20;;;14.30;99.90;;;;;;6133902;23;20155;-91
2023/08/30 06:42:00;;;;;;;12.27;7.53;;;14.70;99.90;;;;;;6135194;23;20603;-91
2023/08/30 06:44:27;;;;;;;10.03;7.10;;;14.50;99.90;;;;;;6132786;23;20301;-91
2023/08/30 06:46:54;;;;;;;10.07;7.07;;;14.70;99.90;;;;;;6107138;23;20258;-92
2023/08/30 06:49:19;;;;;;;9.67;7.30;;;15.50;99.90;;;;;;6106239;23;20200;-90
2023/08/30 06:51:45;;;;;;;10.73;6.73;;;14.80;99.90;;;;;;6106551;23;20159;-91
2023/08/30 06:54:11;;;;;;;12.17;7.43;;;15.00;99.90;;;;;;6106652;23;20185;-92
2023/08/30 06:56:36;;;;;;;7.63;6.83;;;15.00;99.90;;;;;;6134502;23;20618;-90
2023/08/30 06:59:02;;;;;;;10.00;6.70;;;16.30;99.90;;;;;;6132800;23;20154;-89
2023/08/30 07:01:27;;;;;;;9.33;7.50;;;15.40;99.90;;;;;;6108757;23;20185;-91
2023/08/30 07:03:53;;;;;;;10.90;7.33;;;15.60;99.90;;;;;;6132857;23;20167;-91
2023/08/30 07:06:18;;;;;;;8.57;7.03;;;15.70;99.90;;;;;;6107030;23;20235;-90
2023/08/30 07:08:44;;;;;;;10.40;6.57;;;16.30;99.90;;;;;;6106697;23;20173;-91
2023/08/30 07:11:11;;;;;;;7.60;6.50;;;16.10;99.90;;;;;;6133839;23;20163;-92
2023/08/30 07:13:37;;;;;;;8.33;6.13;;;16.20;99.90;;;;;;6107988;23;20635;-93
2023/08/30 07:16:03;;;;;;;8.30;6.17;;;16.50;99.90;;;;;;6084375;23;20190;-92
2023/08/30 07:18:29;;;;;;;7.53;5.73;;;16.60;94.60;;;;;;6109595;23;20158;-90
2023/08/30 07:20:55;;;;;;;5.53;4.77;;;16.80;87.60;;;;;;6137431;23;20174;-91
2023/08/30 07:23:20;;;;;;;9.57;5.27;;;17.00;73.20;;;;;;6136396;23;20154;-91
2023/08/30 07:25:46;;;;;;;7.67;4.67;;;17.40;66.50;;;;;;6087850;23;20189;-92
2023/08/30 07:28:11;;;;;;;6.93;4.27;;;17.40;57.10;;;;;;6138851;23;20254;-92
2023/08/30 07:30:39;;;;;;;8.57;4.23;;;17.50;44.30;;;;;;6113118;23;20181;-91
2023/08/30 07:33:04;;;;;;;9.43;4.67;;;17.60;35.10;;;;;;6113240;23;20182;-92
2023/08/30 07:35:32;;;;;;;7.90;3.70;;;17.50;30.80;;;;;;6112343;23;20178;-91
2023/08/30 07:37:58;;;;;;;5.77;4.10;;;17.60;28.00;;;;;;6086821;23;20191;-92
2023/08/30 07:40:28;;;;;;;9.23;4.10;;;17.50;27.00;;;;;;6110744;23;20166;-89
2023/08/30 07:42:53;;;;;;;5.60;3.47;;;17.60;26.70;;;;;;6087789;23;20163;-91
2023/08/30 07:45:19;;;;;;;4.97;3.43;;;17.50;27.00;;;;;;6136618;23;20177;-93
2023/08/30 07:47:45;;;;;;;5.73;3.37;;;17.60;26.90;;;;;;6135135;23;20155;-92
2023/08/30 07:50:10;;;;;;;4.90;3.07;;;17.60;23.30;;;;;;6135179;23;20163;-91
2023/08/30 07:52:36;;;;;;;4.83;3.40;;;17.70;24.70;;;;;;6110386;23;20182;-92
2023/08/30 07:55:01;;;;;;;7.13;3.60;;;17.80;24.20;;;;;;6109932;23;20178;-92
2023/08/30 07:57:27;;;;;;;5.97;3.37;;;17.90;21.10;;;;;;6109423;23;20166;-92
2023/08/30 07:59:54;;;;;;;4.90;3.40;;;18.00;18.10;;;;;;6108969;23;20159;-91
2023/08/30 08:02:21;;;;;;;5.47;3.03;;;18.10;15.90;;;;;;6084693;23;20173;-89
2023/08/30 08:04:46;;;;;;;7.30;3.10;;;18.20;12.00;;;;;;6110859;23;20182;-92
2023/08/30 08:07:12;;;;;;;4.73;2.93;;;18.10;5.40;;;;;;6121271;23;20169;-90
2023/08/30 08:09:38;;;;;;;6.33;3.63;;;18.10;1.00;;;;;;6135548;23;20245;-91
2023/08/30 08:12:04;;;;;;;5.50;3.80;;;18.00;1.00;;;;;;6136287;23;20174;-93
2023/08/30 08:14:29;;;;;;;6.47;3.40;;;18.00;6.00;;;;;;6108670;23;20662;-91
2023/08/30 08:16:55;;;;;;;6.50;3.80;;;17.90;8.70;;;;;;6133420;23;20234;-91
2023/08/30 08:19:21;;;;;;;5.77;4.10;;;17.90;17.70;;;;;;6108359;23;20497;-88
2023/08/30 08:21:47;;;;;;;7.23;3.77;;;17.90;21.10;;;;;;6106476;23;20166;-88
2023/08/30 08:24:13;;;;;;;7.57;4.50;;;17.70;21.60;;;;;;6105586;23;20158;-86
2023/08/30 08:26:39;;;;;;;7.40;4.30;;;17.90;22.80;;;;;;6132265;23;20241;-85
2023/08/30 08:29:04;;;;;;;5.17;4.07;;;17.80;24.90;;;;;;6130826;23;20143;-89
2023/08/30 08:31:30;;;;;;;6.20;4.10;;;17.90;29.10;;;;;;6103671;23;20166;-89
2023/08/30 08:34:09;;;;;;;8.43;4.47;;;18.20;32.20;;;;;;6131511;23;20214;-88
2023/08/30 08:36:35;;;;;;;7.80;4.07;;;18.10;28.20;;;;;;6133387;23;20170;-89
2023/08/30 08:39:02;;;;;;;6.77;3.70;;;18.30;26.70;;;;;;6105648;23;20158;-86
2023/08/30 08:41:37;;;;;;;5.37;3.93;;;18.40;13.20;;;;;;6107631;23;20162;-91
2023/08/30 08:44:06;;;;;;;7.27;4.33;;;18.40;11.30;;;;;;6104653;23;20162;-88
2023/08/30 08:46:35;;;;;;;5.70;3.27;;;18.50;6.70;;;;;;6131766;23;20217;-88
2023/08/30 08:49:14;;;;;;;5.87;3.40;;;18.50;8.50;;;;;;6105752;23;20158;-85
2023/08/30 08:51:42;;;;;;;4.73;3.27;;;18.60;10.80;;;;;;6098970;23;20162;-88
2023/08/30 08:54:09;;;;;;;4.43;3.53;;;18.60;10.20;;;;;;6105011;23;20154;-86
2023/08/30 08:56:35;;;;;;;5.20;3.03;;;18.60;9.50;;;;;;6105869;23;20190;-85
2023/08/30 08:59:01;;;;;;;6.10;3.30;;;18.50;1.00;;;;;;6105610;23;20163;-90
2023/08/30 09:01:33;;;;;;;5.63;3.13;;;18.50;5.90;;;;;;6131229;23;20172;-87
2023/08/30 09:03:59;;;;;;;5.77;2.83;;;18.50;1.00;;;;;;6106295;23;20233;-90
2023/08/30 09:06:25;;;;;;;3.90;2.57;;;18.40;6.40;;;;;;6105954;23;20161;-89
2023/08/30 09:08:51;;;;;;;3.93;2.90;;;18.30;7.70;;;;;;6107501;23;20190;-86
2023/08/30 09:11:16;;;;;;;5.60;3.00;;;18.40;10.70;;;;;;6108763;23;20165;-88
2023/08/30 09:13:44;;;;;;;6.43;2.70;;;18.40;13.10;;;;;;6106789;23;20261;-86
2023/08/30 09:16:15;;;;;;;2.97;2.40;;;18.50;9.40;;;;;;6106903;23;20495;-87
2023/08/30 09:18:42;;;;;;;2.70;2.03;;;18.40;12.40;;;;;;6133388;23;20161;-84
2023/08/30 09:21:09;;;;;;;3.63;2.37;;;18.50;13.70;;;;;;6105249;23;20623;-84
2023/08/30 09:23:35;;;;;;;3.13;2.10;;;18.70;10.80;;;;;;6131544;23;20556;-87
2023/08/30 09:26:02;;;;;;;3.20;2.50;;;18.70;8.30;;;;;;6106353;23;20264;-85
2023/08/30 09:28:28;;;;;;;3.07;1.90;;;18.80;5.60;;;;;;6134309;23;20196;-84
2023/08/30 09:30:54;;;;;;;4.07;2.40;;;18.80;1.00;;;;;;6158345;23;20188;-85
2023/08/30 09:33:29;;;;;;;4.17;2.07;;;18.80;1.00;;;;;;6133681;23;20185;-83
2023/08/30 09:35:55;;;;;;;8.67;2.23;;;18.80;1.00;;;;;;6133409;23;20256;-85
2023/08/30 09:38:20;;;;;;;2.10;1.90;;;18.90;1.00;;;;;;6159956;23;20150;-87
2023/08/30 09:40:46;;;;;;;2.83;2.13;;;18.90;1.00;;;;;;6158426;23;20174;-88
2023/08/30 09:43:13;;;;;;;4.37;2.17;;;19.00;1.00;;;;;;6157711;23;20161;-85
2023/08/30 09:45:40;;;;;;;3.27;2.00;;;19.20;1.00;;;;;;6133165;23;20247;-86
2023/08/30 09:48:07;;;;;;;2.07;1.70;;;19.40;1.00;;;;;;6132837;23;20617;-86
2023/08/30 09:50:35;;;;;;;2.27;1.80;;;19.50;1.00;;;;;;6159924;23;20184;-86
2023/08/30 09:53:11;;;;;;;6.37;2.00;;;19.50;1.00;;;;;;6133987;23;20189;-84
2023/08/30 09:55:37;;;;;;;3.90;1.80;;;19.50;1.00;;;;;;6158327;23;20169;-88
2023/08/30 09:58:06;;;;;;;5.63;1.87;;;19.50;1.00;;;;;;6134915;23;20165;-87
2023/08/30 10:00:36;;;;;;;5.10;1.87;;;19.40;1.00;;;;;;6110262;23;20162;-85
2023/08/30 10:03:03;;;;;;;2.77;1.67;;;19.20;1.00;;;;;;6111842;23;20169;-90
2023/08/30 10:05:30;;;;;;;4.20;2.27;;;19.00;1.00;;;;;;6137415;23;20666;-91
2023/08/30 10:07:58;;;;;;;3.63;2.47;;;18.80;8.70;;;;;;6135616;23;20162;-86
2023/08/30 10:10:25;;;;;;;2.97;2.03;;;18.50;26.00;;;;;;6174419;23;20145;-90
2023/08/30 10:12:52;;;;;;;3.43;2.30;;;18.20;38.10;;;;;;6183216;23;20173;-85
2023/08/30 10:15:21;;;;;;;4.80;2.77;;;18.00;52.20;;;;;;6155126;23;20198;-93
2023/08/30 10:17:50;;;;;;;3.73;2.30;;;17.60;62.60;;;;;;6145768;23;20172;-93
2023/08/30 10:20:17;;;;;;;2.77;1.77;;;17.40;75.70;;;;;;6145236;23;20162;-91
2023/08/30 10:22:44;;;;;;;3.27;2.30;;;17.10;90.20;;;;;;6144768;23;20158;-91
2023/08/30 10:25:16;;;;;;;2.93;2.17;;;16.90;95.00;;;;;;6142211;23;20370;-89
2023/08/30 10:27:46;;;;;;;4.27;2.30;;;16.70;98.50;;;;;;6145741;23;20233;-92
2023/08/30 10:30:13;;;;;;;6.07;2.07;;;16.70;99.90;;;;;;6139893;23;20151;-93
2023/08/30 10:32:42;;;;;;;4.77;2.77;;;16.50;99.90;;;;;;6138961;23;20186;-91
2023/08/30 10:35:15;;;;;;;6.37;3.17;;;16.60;99.90;;;;;;6138838;23;20189;-94
2023/08/30 10:37:42;;;;;;;2.93;2.63;;;16.50;99.90;;;;;;6139942;23;20146;-93
2023/08/30 10:40:09;;;;;;;4.53;2.70;;;16.50;99.90;;;;;;6138020;23;20165;-93
2023/08/30 10:42:35;;;;;;;3.10;2.53;;;16.50;99.90;;;;;;6136385;23;20169;-93
2023/08/30 10:45:07;;;;;;;5.03;2.90;;;16.80;99.90;;;;;;6135339;23;20568;-94
2023/08/30 10:47:37;;;;;;;4.43;2.63;;;16.60;99.90;;;;;;6135806;23;20166;-93
2023/08/30 10:50:34;;;;;;;3.23;2.93;;;16.60;99.90;;;;;;6135335;23;20169;-93
2023/08/30 10:53:00;;;;;;;4.67;3.20;;;16.60;99.90;;;;;;6137147;23;20170;-93
2023/08/30 10:55:25;;;;;;;3.67;3.20;;;16.90;99.90;;;;;;6137106;23;20237;-94
2023/08/30 10:58:02;;;;;;;4.77;3.40;;;17.10;99.90;;;;;;6138501;23;20161;-92
2023/08/30 11:00:29;;;;;;;3.63;3.33;;;16.70;99.90;;;;;;6112646;23;20169;-92
2023/08/30 11:02:55;;;;;;;3.37;3.00;;;16.70;99.90;;;;;;6137488;23;20169;-90
2023/08/30 11:05:24;;;;;;;5.97;3.00;;;16.70;99.90;;;;;;6135954;23;20245;-88
2023/08/30 11:07:50;;;;;;;4.23;3.07;;;16.70;99.90;;;;;;6137446;23;20166;-90
2023/08/30 11:10:17;;;;;;;3.37;3.07;;;16.70;99.90;;;;;;6136521;23;20162;-92
2023/08/30 11:12:44;;;;;;;3.93;2.70;;;16.70;99.90;;;;;;6137124;23;20182;-93
2023/08/30 11:15:11;;;;;;;4.03;2.90;;;16.70;99.90;;;;;;6137069;23;20185;-93
2023/08/30 11:17:37;;;;;;;3.23;2.73;;;16.60;99.90;;;;;;6137822;23;20233;-90
2023/08/30 11:20:09;;;;;;;3.10;2.63;;;16.50;99.90;;;;;;6136409;23;20607;-91
2023/08/30 11:22:41;;;;;;;3.00;2.57;;;16.60;99.90;;;;;;6135840;23;20615;-92
2023/08/30 11:25:09;;;;;;;3.50;2.50;;;16.50;99.90;;;;;;6136036;23;20291;-93
2023/08/30 11:27:34;;;;;;;3.97;2.87;;;16.50;99.90;;;;;;6135284;23;20202;-92
2023/08/30 11:30:03;;;;;;;3.20;2.90;;;16.60;99.90;;;;;;6135689;23;20157;-94
2023/08/30 11:32:31;;;;;;;3.30;2.80;;;16.70;99.90;;;;;;6135319;23;20256;-92
2023/08/30 11:35:00;;;;;;;3.23;2.83;;;16.80;99.90;;;;;;6135305;23;20182;-91
2023/08/30 11:37:27;;;;;;;3.67;2.70;;;16.80;99.90;;;;;;6137308;23;20600;-92
2023/08/30 11:39:57;;;;;;;2.93;2.63;;;16.90;99.90;;;;;;6142138;23;20173;-94
2023/08/30 11:42:23;;;;;;;4.00;2.50;;;17.00;99.90;;;;;;6139357;23;20234;-92
2023/08/30 11:44:49;;;;;;;4.40;2.40;;;16.90;99.90;;;;;;6138571;23;20185;-92
2023/08/30 11:47:23;;;;;;;2.87;2.07;;;16.70;99.90;;;;;;6139057;23;20218;-92
2023/08/30 11:49:50;;;;;;;3.10;2.30;;;16.70;99.90;;;;;;6139985;23;20157;-93
2023/08/30 11:52:17;;;;;;;2.50;2.30;;;16.60;99.90;;;;;;6140853;23;20189;-92
2023/08/30 11:54:43;;;;;;;2.80;2.13;;;16.60;99.90;;;;;;6140222;23;20178;-93
2023/08/30 11:57:09;;;;;;;2.83;1.90;;;16.60;99.90;;;;;;6139873;23;20265;-90
2023/08/30 11:59:38;;;;;;;1.90;1.80;;;16.50;99.90;;;;;;6139509;23;20248;-92
2023/08/30 12:02:04;;;;;;;2.27;2.07;;;16.50;99.90;;;;;;6137037;23;20192;-92
2023/08/30 12:04:31;;;;;;;3.10;2.00;;;16.40;99.90;;;;;;6137026;23;20210;-91
2023/08/30 12:06:56;;;;;;;3.67;2.00;;;16.50;99.90;;;;;;6136642;23;20166;-93
2023/08/30 12:09:22;;;;;;;3.50;2.10;;;16.50;99.90;;;;;;6137809;23;20159;-94
2023/08/30 12:11:51;;;;;;;2.20;2.00;;;16.50;99.90;;;;;;6136178;23;20166;-92
2023/08/30 12:14:17;;;;;;;4.50;1.90;;;16.50;99.90;;;;;;6136549;23;20186;-93
2023/08/30 12:16:46;;;;;;;1.63;1.50;;;16.50;99.90;;;;;;6136607;23;20158;-93
2023/08/30 12:19:14;;;;;;;2.10;1.80;;;16.60;99.90;;;;;;6136029;23;20158;-91
2023/08/30 12:21:42;;;;;;;2.80;1.40;;;16.60;99.90;;;;;;6136114;23;20233;-92
2023/08/30 12:24:07;;;;;;;1.60;1.50;;;16.80;99.90;;;;;;6137559;23;20151;-92
2023/08/30 12:26:33;;;;;;;1.97;1.77;;;16.60;99.90;;;;;;6135815;23;20246;-93
2023/08/30 12:28:59;;;;;;;1.53;1.37;;;16.60;99.90;;;;;;6137037;23;20205;-88
2023/08/30 12:31:24;;;;;;;1.77;1.40;;;16.80;99.90;;;;;;6136172;23;20166;-94
2023/08/30 12:33:50;;;;;;;1.53;1.33;;;16.80;99.90;;;;;;6136608;23;20213;-92
2023/08/30 12:36:17;;;;;;;1.50;1.40;;;16.70;99.90;;;;;;6136041;23;20182;-92
2023/08/30 12:38:42;;;;;;;1.97;1.60;;;16.80;99.90;;;;;;6138034;23;20210;-92
2023/08/30 12:41:08;;;;;;;1.50;1.40;;;16.80;99.90;;;;;;6136970;23;20635;-92
2023/08/30 12:43:34;;;;;;;3.73;1.07;;;17.00;99.90;;;;;;6136164;23;20481;-92